Time;durP1;ratioP1;P1;durP2;ratioP2;P2;SDS_P1;SDS_P2;PMS_P1;PMS_P2;Temp;Humidity;BMP_temperature;BMP_pressure;BME280_temperature;BME280_humidity;BME280_pressure;Samples;Min_cycle;Max_cycle;Signal;HPM_P1;HPM_P2
2021/12/19 00:02:00;;;;;;;47.23;42.47;;;6.60;99.90;;;;;;5027517;28;20468;-70
2021/12/19 00:04:33;;;;;;;47.70;42.97;;;6.60;99.90;;;;;;5023889;28;20457;-70
2021/12/19 00:09:44;;;;;;;45.67;40.80;;;6.60;99.90;;;;;;5020724;28;20467;-71
2021/12/19 00:12:11;;;;;;;45.33;40.70;;;6.50;99.90;;;;;;5020717;28;20557;-72
2021/12/19 00:14:39;;;;;;;48.37;43.07;;;6.50;99.90;;;;;;5023505;28;20556;-70
2021/12/19 00:17:06;;;;;;;43.33;38.77;;;6.50;99.90;;;;;;5021876;28;20468;-72
2021/12/19 00:19:33;;;;;;;47.53;41.53;;;6.40;99.90;;;;;;5025204;28;20461;-70
2021/12/19 00:22:00;;;;;;;46.03;41.10;;;6.40;99.90;;;;;;5027564;28;20461;-70
2021/12/19 00:24:27;;;;;;;47.37;42.50;;;6.40;99.90;;;;;;5018614;28;20471;-72
2021/12/19 00:26:54;;;;;;;47.63;39.77;;;6.40;99.90;;;;;;5024187;28;20978;-69
2021/12/19 00:29:21;;;;;;;49.87;39.27;;;6.40;99.90;;;;;;5025529;28;20464;-69
2021/12/19 00:31:50;;;;;;;47.27;40.30;;;6.40;99.90;;;;;;5027523;28;20548;-69
2021/12/19 00:34:17;;;;;;;51.20;42.93;;;6.40;99.90;;;;;;5025427;28;20477;-72
2021/12/19 00:36:45;;;;;;;46.03;40.63;;;6.50;99.90;;;;;;5022597;28;20483;-70
2021/12/19 00:39:13;;;;;;;45.17;40.23;;;6.50;99.90;;;;;;5022499;28;20466;-70
2021/12/19 00:41:40;;;;;;;46.50;40.87;;;6.60;99.90;;;;;;5025572;28;20543;-69
2021/12/19 00:44:09;;;;;;;55.53;39.83;;;6.60;99.90;;;;;;5021704;28;20506;-69
2021/12/19 00:46:43;;;;;;;48.73;40.37;;;6.60;99.90;;;;;;5022688;28;20486;-69
2021/12/19 00:49:12;;;;;;;58.97;40.90;;;6.60;99.90;;;;;;5016902;28;20533;-69
2021/12/19 00:51:39;;;;;;;55.13;38.60;;;6.60;99.90;;;;;;5025680;28;20461;-71
2021/12/19 00:54:09;;;;;;;55.17;39.00;;;6.50;99.90;;;;;;5017093;28;21007;-72
2021/12/19 00:56:37;;;;;;;53.80;40.10;;;6.50;99.90;;;;;;5023060;28;20460;-69
2021/12/19 00:59:04;;;;;;;58.27;39.27;;;6.50;99.90;;;;;;5021698;28;20566;-72
2021/12/19 01:01:32;;;;;;;56.17;39.23;;;6.60;99.90;;;;;;5023494;28;20566;-70
2021/12/19 01:03:59;;;;;;;61.00;40.43;;;6.50;99.90;;;;;;5021818;28;20496;-69
2021/12/19 01:06:28;;;;;;;57.00;40.77;;;6.50;99.90;;;;;;5024672;28;20473;-70
2021/12/19 01:08:55;;;;;;;55.43;40.47;;;6.50;99.90;;;;;;5026824;28;20460;-72
2021/12/19 01:11:22;;;;;;;57.00;39.67;;;6.60;99.90;;;;;;5022400;28;20473;-70
2021/12/19 01:13:49;;;;;;;57.37;41.67;;;6.60;99.90;;;;;;5023443;28;20457;-69
2021/12/19 01:16:16;;;;;;;60.90;42.23;;;6.60;99.90;;;;;;5018332;28;20465;-71
2021/12/19 01:18:43;;;;;;;70.30;40.20;;;6.50;99.90;;;;;;5020376;28;20464;-71
2021/12/19 01:21:10;;;;;;;74.17;40.87;;;6.60;99.90;;;;;;5023730;28;20473;-69
2021/12/19 01:23:38;;;;;;;64.80;43.03;;;6.50;99.90;;;;;;5024463;28;20497;-70
2021/12/19 01:26:05;;;;;;;62.13;40.77;;;6.60;99.90;;;;;;5025071;28;21151;-69
2021/12/19 01:28:32;;;;;;;63.37;41.70;;;6.60;99.90;;;;;;5020684;28;20469;-70
2021/12/19 01:30:59;;;;;;;59.47;41.07;;;6.50;99.90;;;;;;5021813;28;20473;-69
2021/12/19 01:33:26;;;;;;;54.33;39.23;;;6.50;99.90;;;;;;5024411;28;20461;-70
2021/12/19 01:35:53;;;;;;;60.97;39.90;;;6.50;99.90;;;;;;5022277;28;20476;-69
2021/12/19 01:38:20;;;;;;;61.83;41.67;;;6.50;99.90;;;;;;5026431;28;20591;-69
2021/12/19 01:40:49;;;;;;;56.30;41.97;;;6.40;99.90;;;;;;5025201;28;20474;-70
2021/12/19 01:43:20;;;;;;;63.30;42.90;;;6.50;99.90;;;;;;5017369;28;20490;-69
2021/12/19 01:45:47;;;;;;;55.87;40.03;;;6.50;99.90;;;;;;5019278;28;20485;-69
2021/12/19 01:48:14;;;;;;;68.37;40.67;;;6.60;99.90;;;;;;5022545;28;20473;-69
2021/12/19 01:50:43;;;;;;;56.63;41.10;;;6.60;99.90;;;;;;5022321;28;20476;-70
2021/12/19 01:53:12;;;;;;;58.13;39.83;;;6.60;99.90;;;;;;5025484;28;21011;-69
2021/12/19 01:55:40;;;;;;;60.47;42.47;;;6.60;99.90;;;;;;5021525;28;20468;-69
2021/12/19 01:58:09;;;;;;;53.80;42.03;;;6.60;99.90;;;;;;5015953;28;20561;-69
2021/12/19 02:00:39;;;;;;;56.97;40.60;;;6.70;99.90;;;;;;5019952;28;20894;-69
2021/12/19 02:03:07;;;;;;;61.90;42.47;;;6.70;99.90;;;;;;5015687;28;21390;-73
2021/12/19 02:05:34;;;;;;;48.20;39.50;;;6.70;99.90;;;;;;5022504;28;20946;-72
2021/12/19 02:08:02;;;;;;;54.07;40.00;;;6.70;99.90;;;;;;5027986;28;20467;-73
2021/12/19 02:10:32;;;;;;;50.47;39.50;;;6.60;99.90;;;;;;5023903;28;21155;-72
2021/12/19 02:13:01;;;;;;;47.83;40.40;;;6.60;99.90;;;;;;5022921;28;20469;-70
2021/12/19 02:15:31;;;;;;;55.70;40.00;;;6.70;99.90;;;;;;5023635;28;20457;-72
2021/12/19 02:18:00;;;;;;;48.37;38.97;;;6.70;99.90;;;;;;5023376;28;20519;-73
2021/12/19 02:20:32;;;;;;;47.87;38.93;;;6.70;99.90;;;;;;5024073;28;20457;-71
2021/12/19 02:23:00;;;;;;;47.57;38.83;;;6.70;99.90;;;;;;5019337;28;20887;-71
2021/12/19 02:25:27;;;;;;;49.33;39.20;;;6.70;99.90;;;;;;5018952;28;20466;-69
2021/12/19 02:27:55;;;;;;;43.77;39.03;;;6.70;99.90;;;;;;5022082;28;20468;-71
2021/12/19 02:30:22;;;;;;;53.60;39.40;;;6.70;99.90;;;;;;5025884;28;20468;-69
2021/12/19 02:32:49;;;;;;;59.27;39.57;;;6.70;99.90;;;;;;5022001;28;20461;-72
2021/12/19 02:35:20;;;;;;;53.57;38.73;;;6.70;99.90;;;;;;5026006;28;20459;-71
2021/12/19 02:38:16;;;;;;;51.63;40.00;;;6.70;99.90;;;;;;5019305;28;20466;-73
2021/12/19 02:48:53;;;;;;;55.67;39.13;;;6.60;99.90;;;;;;5021526;28;20546;-71
2021/12/19 02:51:20;;;;;;;49.57;37.17;;;6.70;99.90;;;;;;5014834;28;20465;-70
2021/12/19 02:53:48;;;;;;;45.00;37.43;;;6.70;99.90;;;;;;5022707;28;20497;-73
2021/12/19 02:56:15;;;;;;;51.77;39.03;;;6.70;99.90;;;;;;5018834;28;20466;-70
2021/12/19 02:58:44;;;;;;;45.67;37.90;;;6.70;99.90;;;;;;5022516;28;20457;-71
2021/12/19 03:01:14;;;;;;;41.27;36.67;;;6.70;99.90;;;;;;5017735;28;20465;-74
2021/12/19 03:03:41;;;;;;;44.83;38.07;;;6.70;99.90;;;;;;5021152;28;20491;-71
2021/12/19 03:06:08;;;;;;;45.87;37.97;;;6.60;99.90;;;;;;5020509;28;21022;-71
2021/12/19 03:08:41;;;;;;;44.50;37.93;;;6.60;99.90;;;;;;5022635;28;20467;-73
2021/12/19 03:11:47;;;;;;;46.10;36.20;;;6.70;99.90;;;;;;5022260;28;20943;-71
2021/12/19 03:19:40;;;;;;;45.47;37.50;;;6.60;99.90;;;;;;5025299;28;20460;-70
2021/12/19 03:22:07;;;;;;;44.33;37.03;;;6.70;99.90;;;;;;5023737;28;20467;-71
2021/12/19 03:24:34;;;;;;;47.00;38.70;;;6.70;99.90;;;;;;5018779;28;20488;-70
2021/12/19 03:27:02;;;;;;;49.93;38.50;;;6.70;99.90;;;;;;5019483;28;20567;-72
2021/12/19 03:29:30;;;;;;;46.97;38.00;;;6.70;99.90;;;;;;5018607;28;20462;-70
2021/12/19 03:31:57;;;;;;;49.20;37.80;;;6.70;99.90;;;;;;5028718;28;20878;-72
2021/12/19 03:34:24;;;;;;;43.07;36.40;;;6.60;99.90;;;;;;5015136;28;20457;-69
2021/12/19 03:36:52;;;;;;;50.03;39.13;;;6.60;99.90;;;;;;5021978;28;20472;-72
2021/12/19 03:39:32;;;;;;;49.00;37.13;;;6.50;99.90;;;;;;5020772;28;20810;-69
2021/12/19 03:41:59;;;;;;;46.10;37.60;;;6.50;99.90;;;;;;5019581;28;20514;-70
2021/12/19 03:44:27;;;;;;;57.00;38.60;;;6.60;99.90;;;;;;5022486;28;20522;-70
2021/12/19 03:46:54;;;;;;;50.47;39.20;;;6.50;99.90;;;;;;5022039;28;20852;-72
2021/12/19 03:49:21;;;;;;;48.00;38.40;;;6.60;99.90;;;;;;5025021;28;20457;-73
2021/12/19 03:51:48;;;;;;;42.67;38.07;;;6.60;99.90;;;;;;5021027;28;20461;-73
2021/12/19 03:54:16;;;;;;;50.47;39.73;;;6.60;99.90;;;;;;5018028;28;20507;-71
2021/12/19 03:56:43;;;;;;;45.80;40.73;;;6.50;99.90;;;;;;5022340;28;20461;-70
2021/12/19 03:59:10;;;;;;;54.07;40.43;;;6.60;99.90;;;;;;5023617;28;21042;-70
2021/12/19 04:01:39;;;;;;;56.07;44.70;;;6.50;99.90;;;;;;5023940;28;20461;-70
2021/12/19 04:04:06;;;;;;;54.13;43.50;;;6.60;99.90;;;;;;5019987;28;21113;-70
2021/12/19 04:06:33;;;;;;;50.60;45.20;;;6.60;99.90;;;;;;5018172;28;20469;-70
2021/12/19 04:09:00;;;;;;;54.10;46.07;;;6.50;99.90;;;;;;5021927;28;20463;-70
2021/12/19 04:11:27;;;;;;;50.07;45.27;;;6.50;99.90;;;;;;5023290;28;20466;-71
2021/12/19 04:13:54;;;;;;;51.03;45.57;;;6.60;99.90;;;;;;5021240;28;20470;-70
2021/12/19 04:16:20;;;;;;;52.47;46.90;;;6.50;99.90;;;;;;5022802;28;20836;-70
2021/12/19 04:18:48;;;;;;;52.90;46.60;;;6.60;99.90;;;;;;5020269;28;20461;-70
2021/12/19 04:21:16;;;;;;;51.73;46.20;;;6.50;99.90;;;;;;5021101;28;20469;-70
2021/12/19 04:23:42;;;;;;;50.00;45.10;;;6.50;99.90;;;;;;5015844;28;20862;-71
2021/12/19 04:26:09;;;;;;;50.53;45.63;;;6.50;99.90;;;;;;5022911;28;20467;-73
2021/12/19 04:28:36;;;;;;;47.40;42.90;;;6.50;99.90;;;;;;5020841;28;20487;-72
2021/12/19 04:31:04;;;;;;;48.87;44.33;;;6.50;99.90;;;;;;5020349;28;20463;-70
2021/12/19 04:33:32;;;;;;;51.30;46.20;;;6.40;99.90;;;;;;5016915;28;20852;-69
2021/12/19 04:36:03;;;;;;;51.17;45.80;;;6.40;99.90;;;;;;5018754;28;20457;-72
2021/12/19 04:58:20;;;;;;;51.07;46.30;;;6.50;99.90;;;;;;5014848;28;20468;-70
2021/12/19 05:00:57;;;;;;;48.03;43.63;;;6.50;99.90;;;;;;5024560;28;21000;-69
2021/12/19 05:03:33;;;;;;;49.20;44.73;;;6.50;99.90;;;;;;5023761;28;20511;-70
2021/12/19 05:06:07;;;;;;;50.70;46.10;;;6.40;99.90;;;;;;5024385;28;20463;-72
2021/12/19 05:14:13;;;;;;;53.90;48.83;;;6.50;99.90;;;;;;5020213;28;20480;-69
2021/12/19 05:16:43;;;;;;;52.93;48.20;;;6.50;99.90;;;;;;5019696;28;20471;-69
2021/12/19 05:19:21;;;;;;;52.10;47.10;;;6.60;99.90;;;;;;5028249;28;20760;-72
2021/12/19 05:21:49;;;;;;;55.30;49.77;;;6.60;99.90;;;;;;5025392;28;20467;-73
2021/12/19 05:24:42;;;;;;;55.07;49.40;;;6.60;99.90;;;;;;5020463;28;20496;-71
2021/12/19 05:27:10;;;;;;;57.20;51.27;;;6.50;99.90;;;;;;5021265;28;20460;-73
2021/12/19 05:29:37;;;;;;;56.07;50.33;;;6.60;99.90;;;;;;5024912;28;20467;-70
2021/12/19 05:32:06;;;;;;;55.33;49.40;;;6.60;99.90;;;;;;5028919;28;20509;-72
2021/12/19 05:34:33;;;;;;;57.73;51.53;;;6.50;99.90;;;;;;5021695;28;20540;-72
2021/12/19 05:45:19;;;;;;;51.80;46.80;;;6.60;99.90;;;;;;5015007;28;20542;-70
2021/12/19 05:47:48;;;;;;;50.70;45.77;;;6.50;99.90;;;;;;5022689;28;20467;-72
2021/12/19 05:50:17;;;;;;;49.07;44.17;;;6.50;99.90;;;;;;5026549;28;20465;-70
2021/12/19 05:52:46;;;;;;;49.17;44.47;;;6.50;99.90;;;;;;5025046;28;20487;-70
2021/12/19 05:55:15;;;;;;;48.33;43.80;;;6.50;99.90;;;;;;5019986;28;20473;-70
2021/12/19 05:57:43;;;;;;;49.30;44.63;;;6.50;99.90;;;;;;5021164;28;20482;-70
2021/12/19 06:00:14;;;;;;;48.10;43.60;;;6.50;99.90;;;;;;5019079;28;21338;-70
2021/12/19 06:02:42;;;;;;;46.57;42.20;;;6.50;99.90;;;;;;5022434;28;20503;-69
2021/12/19 06:05:10;;;;;;;48.33;44.00;;;6.50;99.90;;;;;;5024880;28;20492;-70
2021/12/19 06:07:36;;;;;;;48.23;43.80;;;6.50;99.90;;;;;;5027598;28;20482;-70
2021/12/19 06:10:05;;;;;;;47.07;42.30;;;6.50;99.90;;;;;;5021471;28;20469;-69
2021/12/19 06:12:34;;;;;;;47.90;43.43;;;6.50;99.90;;;;;;5016936;28;20460;-70
2021/12/19 06:15:01;;;;;;;45.00;40.97;;;6.50;99.90;;;;;;5022138;28;20948;-70
2021/12/19 06:17:28;;;;;;;48.73;43.87;;;6.50;99.90;;;;;;5017990;28;20472;-70
2021/12/19 06:19:55;;;;;;;46.33;41.93;;;6.50;99.90;;;;;;5019855;28;20465;-70
2021/12/19 06:22:21;;;;;;;47.47;42.47;;;6.50;99.90;;;;;;5020862;28;20832;-70
2021/12/19 06:24:48;;;;;;;45.57;41.47;;;6.50;99.90;;;;;;5020088;28;20511;-70
2021/12/19 06:27:15;;;;;;;45.87;41.40;;;6.50;99.90;;;;;;5016114;28;20454;-69
2021/12/19 06:29:44;;;;;;;46.30;42.10;;;6.40;99.90;;;;;;5017969;28;20496;-70
2021/12/19 06:32:10;;;;;;;43.17;39.53;;;6.40;99.90;;;;;;5024270;28;20469;-70
2021/12/19 06:34:37;;;;;;;44.73;40.23;;;6.40;99.90;;;;;;5022149;28;20933;-70
2021/12/19 06:37:08;;;;;;;42.70;38.97;;;6.30;99.90;;;;;;5020198;28;20471;-70
2021/12/19 06:39:37;;;;;;;45.97;41.63;;;6.30;99.90;;;;;;5019515;28;20544;-70
2021/12/19 06:42:05;;;;;;;44.17;39.73;;;6.30;99.90;;;;;;5019807;28;20555;-70
2021/12/19 06:44:32;;;;;;;43.43;39.00;;;6.30;99.90;;;;;;5019641;28;20523;-71
2021/12/19 06:47:00;;;;;;;43.93;39.60;;;6.30;99.90;;;;;;5024166;28;20481;-70
2021/12/19 06:49:28;;;;;;;44.63;40.03;;;6.30;99.90;;;;;;5019852;28;20492;-70
2021/12/19 06:51:56;;;;;;;45.97;41.77;;;6.40;99.90;;;;;;5016419;28;20582;-70
2021/12/19 06:54:23;;;;;;;47.53;42.57;;;6.40;99.90;;;;;;5018187;28;20492;-70
2021/12/19 06:56:50;;;;;;;48.10;43.00;;;6.40;99.90;;;;;;5018109;28;20471;-70
2021/12/19 06:59:17;;;;;;;47.13;42.27;;;6.40;99.90;;;;;;5021628;28;20477;-70
2021/12/19 07:01:44;;;;;;;52.80;47.07;;;6.40;99.90;;;;;;5025577;28;20469;-70
2021/12/19 07:04:12;;;;;;;50.80;45.47;;;6.40;99.90;;;;;;5021838;28;20489;-70
2021/12/19 07:06:39;;;;;;;51.30;46.20;;;6.30;99.90;;;;;;5020973;28;21137;-70
2021/12/19 07:09:06;;;;;;;50.03;44.97;;;6.30;99.90;;;;;;5022439;28;20593;-70
2021/12/19 07:11:33;;;;;;;53.50;47.13;;;6.30;99.90;;;;;;5016180;28;20489;-70
2021/12/19 07:14:00;;;;;;;53.23;47.03;;;6.40;99.90;;;;;;5025165;28;20458;-71
2021/12/19 07:16:27;;;;;;;58.13;49.80;;;6.40;99.90;;;;;;5024054;28;20457;-70
2021/12/19 07:18:54;;;;;;;52.93;47.40;;;6.40;99.90;;;;;;5013272;28;21030;-70
2021/12/19 07:21:24;;;;;;;56.43;45.07;;;6.30;99.90;;;;;;5018599;28;20460;-70
2021/12/19 07:23:50;;;;;;;54.80;48.53;;;6.30;99.90;;;;;;5022469;28;20515;-70
2021/12/19 07:26:17;;;;;;;63.23;48.97;;;6.30;99.90;;;;;;5019584;28;20465;-71
2021/12/19 07:28:46;;;;;;;53.27;46.67;;;6.40;99.90;;;;;;5022830;28;20562;-71
2021/12/19 07:31:16;;;;;;;49.13;43.90;;;6.30;99.90;;;;;;5025755;28;20479;-70
2021/12/19 07:33:44;;;;;;;49.23;44.60;;;6.30;99.90;;;;;;5021549;28;20476;-70
2021/12/19 07:36:11;;;;;;;46.17;41.30;;;6.30;99.90;;;;;;5017148;28;20461;-71
2021/12/19 07:38:50;;;;;;;48.53;43.70;;;6.20;99.90;;;;;;5016202;28;20526;-71
2021/12/19 07:41:17;;;;;;;44.30;39.97;;;6.20;99.90;;;;;;5021664;28;20454;-71
2021/12/19 07:43:44;;;;;;;42.47;38.60;;;6.20;99.90;;;;;;5017990;28;20461;-70
2021/12/19 07:46:11;;;;;;;43.27;39.23;;;6.00;99.90;;;;;;5024146;28;20588;-70
2021/12/19 07:48:38;;;;;;;44.77;39.97;;;5.90;99.90;;;;;;5015172;28;20542;-70
2021/12/19 07:51:05;;;;;;;46.70;42.20;;;6.00;99.90;;;;;;5020931;28;20476;-71
2021/12/19 07:53:31;;;;;;;45.23;40.80;;;6.00;99.90;;;;;;5019154;28;20491;-70
2021/12/19 07:56:00;;;;;;;44.50;40.10;;;6.00;99.90;;;;;;5016771;28;20508;-70
2021/12/19 07:58:27;;;;;;;45.30;41.10;;;6.10;99.90;;;;;;5017101;28;20479;-70
2021/12/19 08:00:54;;;;;;;42.97;39.17;;;6.10;99.90;;;;;;5017803;28;20469;-70
2021/12/19 08:03:21;;;;;;;45.17;41.30;;;6.20;99.90;;;;;;5022568;28;20971;-69
2021/12/19 08:05:48;;;;;;;42.50;39.10;;;6.20;99.90;;;;;;5020263;28;20492;-70
2021/12/19 08:08:21;;;;;;;43.60;40.00;;;6.20;99.90;;;;;;5018081;28;20925;-70
2021/12/19 08:13:34;;;;;;;43.53;40.03;;;6.20;99.90;;;;;;5017641;28;21033;-71
2021/12/19 08:16:01;;;;;;;43.00;39.00;;;6.20;99.90;;;;;;5021205;28;20528;-71
2021/12/19 08:18:28;;;;;;;44.23;40.00;;;6.20;99.90;;;;;;5019278;28;20807;-70
2021/12/19 08:20:55;;;;;;;44.60;40.27;;;6.20;99.90;;;;;;5021816;28;20473;-71
2021/12/19 08:23:22;;;;;;;43.67;39.03;;;6.20;99.90;;;;;;5025459;28;20461;-71
2021/12/19 08:25:49;;;;;;;45.67;41.10;;;6.20;99.90;;;;;;5025946;28;20503;-71
2021/12/19 08:28:16;;;;;;;46.83;40.23;;;6.20;99.90;;;;;;5024704;28;20884;-70
2021/12/19 08:30:44;;;;;;;43.20;39.20;;;6.20;99.90;;;;;;5025038;28;20547;-69
2021/12/19 08:33:11;;;;;;;43.70;39.53;;;6.20;99.90;;;;;;5021027;28;20469;-70
2021/12/19 08:35:38;;;;;;;44.17;40.10;;;6.30;99.90;;;;;;5026058;28;20468;-71
2021/12/19 08:38:05;;;;;;;43.27;38.63;;;6.30;99.90;;;;;;5025430;28;20475;-71
2021/12/19 08:40:32;;;;;;;44.27;39.70;;;6.30;99.90;;;;;;5023556;28;20453;-71
2021/12/19 08:43:00;;;;;;;45.47;41.27;;;6.30;99.90;;;;;;5018132;28;20461;-71
2021/12/19 08:45:27;;;;;;;46.33;41.83;;;6.40;99.90;;;;;;5023842;28;20503;-69
2021/12/19 08:47:55;;;;;;;44.17;40.17;;;6.50;99.90;;;;;;5022714;28;20522;-70
2021/12/19 08:50:23;;;;;;;44.90;40.97;;;6.50;99.90;;;;;;5027560;28;20457;-70
2021/12/19 08:52:51;;;;;;;42.17;38.37;;;6.60;99.90;;;;;;5035109;28;20507;-71
2021/12/19 08:55:19;;;;;;;44.93;41.13;;;6.50;99.90;;;;;;5022448;28;20506;-71
2021/12/19 08:57:46;;;;;;;43.37;39.50;;;6.60;99.90;;;;;;5021002;28;20467;-71
2021/12/19 09:00:14;;;;;;;42.97;39.27;;;6.60;99.90;;;;;;5022548;28;20468;-71
2021/12/19 09:02:44;;;;;;;44.00;40.33;;;6.60;99.90;;;;;;5028815;28;20471;-71
2021/12/19 09:05:12;;;;;;;42.83;39.00;;;6.60;99.90;;;;;;5026153;28;20535;-70
2021/12/19 09:07:39;;;;;;;42.60;39.00;;;6.60;99.90;;;;;;5025359;28;20534;-70
2021/12/19 09:10:08;;;;;;;40.57;36.50;;;6.60;99.90;;;;;;5026421;28;20820;-70
2021/12/19 09:12:35;;;;;;;41.43;37.60;;;6.50;99.90;;;;;;5021704;28;20467;-70
2021/12/19 09:15:03;;;;;;;41.97;38.57;;;6.50;99.90;;;;;;5023067;28;20472;-71
2021/12/19 09:17:30;;;;;;;41.13;37.83;;;6.50;99.90;;;;;;5021276;28;20502;-71
2021/12/19 09:19:57;;;;;;;41.23;38.00;;;6.60;99.90;;;;;;5023864;28;20463;-71
2021/12/19 09:22:25;;;;;;;42.63;39.00;;;6.70;99.90;;;;;;5022827;28;20479;-71
2021/12/19 09:24:52;;;;;;;41.40;37.67;;;6.60;99.90;;;;;;5021354;28;20511;-70
2021/12/19 09:27:20;;;;;;;41.10;37.70;;;6.70;99.90;;;;;;5024797;28;20483;-69
2021/12/19 09:29:46;;;;;;;44.43;40.37;;;6.70;99.90;;;;;;5022008;28;20872;-71
2021/12/19 09:32:13;;;;;;;47.13;42.27;;;6.70;99.90;;;;;;5021464;28;20970;-71
2021/12/19 09:34:40;;;;;;;45.63;41.00;;;6.70;99.90;;;;;;5016313;28;20463;-70
2021/12/19 09:37:07;;;;;;;49.77;42.00;;;6.80;99.90;;;;;;5018818;28;20838;-71
2021/12/19 09:39:35;;;;;;;47.43;42.63;;;6.80;99.90;;;;;;5021305;28;21254;-71
2021/12/19 09:42:09;;;;;;;46.30;41.70;;;6.90;99.90;;;;;;5016639;28;20464;-70
2021/12/19 09:44:37;;;;;;;44.53;40.30;;;6.90;99.90;;;;;;5016118;28;20468;-71
2021/12/19 09:47:07;;;;;;;44.97;40.80;;;6.90;99.90;;;;;;5017279;28;20480;-70
2021/12/19 09:49:34;;;;;;;46.63;41.80;;;6.90;99.90;;;;;;5016046;28;20539;-69
2021/12/19 09:52:02;;;;;;;44.53;39.20;;;6.90;99.90;;;;;;5021808;28;20476;-71
2021/12/19 09:54:30;;;;;;;43.90;39.60;;;6.90;99.90;;;;;;5015595;28;20664;-71
2021/12/19 09:56:58;;;;;;;42.97;38.90;;;6.90;99.90;;;;;;5015286;28;20464;-71
2021/12/19 09:59:26;;;;;;;42.00;37.50;;;6.90;99.90;;;;;;5023792;28;20544;-71
2021/12/19 10:01:53;;;;;;;41.97;37.60;;;7.00;99.90;;;;;;5017654;28;20523;-70
2021/12/19 10:04:29;;;;;;;40.63;37.07;;;7.00;99.90;;;;;;5020602;28;20571;-71
2021/12/19 10:07:10;;;;;;;42.33;37.93;;;7.00;99.90;;;;;;5012940;28;20862;-70
2021/12/19 10:09:42;;;;;;;40.83;37.00;;;7.00;99.90;;;;;;5022572;28;20474;-71
2021/12/19 10:12:37;;;;;;;40.60;36.60;;;7.00;99.90;;;;;;5017528;28;20507;-71
2021/12/19 10:15:07;;;;;;;41.00;35.90;;;7.10;99.90;;;;;;5017164;28;20468;-71
2021/12/19 10:17:34;;;;;;;40.57;36.77;;;7.10;99.90;;;;;;5015897;28;20465;-71
2021/12/19 10:20:03;;;;;;;41.37;37.03;;;7.10;99.90;;;;;;5011137;28;20472;-71
2021/12/19 10:22:31;;;;;;;38.93;35.37;;;7.20;99.90;;;;;;5011991;28;20771;-72
2021/12/19 10:25:11;;;;;;;40.00;35.90;;;7.10;99.90;;;;;;5020698;28;20540;-73
2021/12/19 10:27:41;;;;;;;39.97;36.20;;;7.10;99.90;;;;;;5019834;28;20469;-70
2021/12/19 10:30:13;;;;;;;37.17;33.77;;;7.10;99.90;;;;;;5021390;28;20468;-69
2021/12/19 10:32:51;;;;;;;37.70;34.37;;;7.10;99.90;;;;;;5009947;28;21045;-72
2021/12/19 10:35:21;;;;;;;35.97;32.63;;;7.00;99.90;;;;;;5016781;28;20467;-71
2021/12/19 10:37:48;;;;;;;37.70;34.10;;;7.10;99.90;;;;;;5019626;28;20479;-72
2021/12/19 10:40:15;;;;;;;39.03;35.33;;;7.10;99.90;;;;;;5016594;28;20464;-71
2021/12/19 10:42:55;;;;;;;35.83;32.43;;;7.10;99.90;;;;;;5015759;28;20471;-70
2021/12/19 10:45:32;;;;;;;37.03;33.70;;;7.10;99.90;;;;;;5015802;28;20988;-71
2021/12/19 10:48:11;;;;;;;36.70;32.80;;;7.00;99.90;;;;;;5012755;28;21253;-70
2021/12/19 10:50:46;;;;;;;37.03;33.27;;;7.10;99.90;;;;;;5015241;28;20456;-71
2021/12/19 10:53:16;;;;;;;36.83;33.27;;;7.10;99.90;;;;;;5009646;28;20492;-70
2021/12/19 10:55:45;;;;;;;39.47;35.17;;;7.10;99.90;;;;;;5020279;28;21330;-71
2021/12/19 10:58:32;;;;;;;35.40;32.23;;;7.10;99.90;;;;;;5018588;28;20862;-71
2021/12/19 11:01:09;;;;;;;35.70;32.57;;;7.10;99.90;;;;;;5018090;28;20966;-71
2021/12/19 11:03:42;;;;;;;33.40;30.53;;;7.10;99.90;;;;;;5012780;28;20555;-70
2021/12/19 11:06:28;;;;;;;37.63;33.80;;;7.20;99.90;;;;;;5010076;28;20651;-70
2021/12/19 11:08:58;;;;;;;36.90;33.20;;;7.10;99.90;;;;;;5014109;28;20876;-70
2021/12/19 11:11:48;;;;;;;36.93;33.47;;;7.10;99.90;;;;;;5020918;28;20542;-72
2021/12/19 11:14:20;;;;;;;38.80;35.03;;;7.10;99.90;;;;;;5017407;28;21334;-70
2021/12/19 11:16:49;;;;;;;37.83;34.17;;;7.10;99.90;;;;;;5020906;28;20478;-70
2021/12/19 11:19:16;;;;;;;40.53;36.33;;;7.00;99.90;;;;;;5014171;28;20563;-71
2021/12/19 11:21:43;;;;;;;39.33;35.70;;;7.00;99.90;;;;;;5016975;28;20476;-70
2021/12/19 11:24:12;;;;;;;38.17;34.57;;;7.10;99.90;;;;;;5020778;28;20462;-71
2021/12/19 11:26:41;;;;;;;36.17;33.10;;;7.30;99.90;;;;;;5008129;28;21041;-72
2021/12/19 11:29:09;;;;;;;38.30;35.00;;;7.30;99.90;;;;;;5019571;28;21308;-71
2021/12/19 11:31:39;;;;;;;36.30;32.80;;;7.30;99.90;;;;;;5017212;28;20468;-70
2021/12/19 11:34:19;;;;;;;40.23;36.40;;;7.30;99.90;;;;;;5013190;28;21292;-72
2021/12/19 11:36:49;;;;;;;41.40;37.60;;;7.30;99.90;;;;;;5014340;28;21234;-72
2021/12/19 11:39:17;;;;;;;39.57;34.90;;;7.30;99.90;;;;;;5016986;28;21133;-71
2021/12/19 11:42:03;;;;;;;40.23;36.40;;;7.20;99.90;;;;;;5013334;28;20469;-71
2021/12/19 11:44:35;;;;;;;41.67;36.80;;;7.30;99.90;;;;;;5011225;28;20470;-71
2021/12/19 11:47:11;;;;;;;40.10;36.20;;;7.30;99.90;;;;;;5013637;28;20589;-71
2021/12/19 11:49:38;;;;;;;45.37;36.93;;;7.30;99.90;;;;;;5013526;28;20972;-72
2021/12/19 11:52:26;;;;;;;43.13;37.63;;;7.30;99.90;;;;;;5016966;28;20468;-71
2021/12/19 11:55:25;;;;;;;39.40;35.60;;;7.30;99.90;;;;;;5013551;28;20499;-72
2021/12/19 11:58:18;;;;;;;41.13;37.10;;;7.30;99.90;;;;;;5014255;28;20576;-70
2021/12/19 12:00:50;;;;;;;38.10;34.67;;;7.50;99.90;;;;;;5015699;28;20898;-71
2021/12/19 12:03:48;;;;;;;41.17;37.13;;;7.50;99.90;;;;;;5023042;28;20464;-70
2021/12/19 12:06:39;;;;;;;42.13;38.20;;;7.40;99.90;;;;;;5022980;28;20916;-71
2021/12/19 12:09:13;;;;;;;42.37;38.37;;;7.30;99.90;;;;;;5019444;28;20546;-72
2021/12/19 12:11:42;;;;;;;45.33;37.53;;;7.30;99.90;;;;;;5021772;28;20491;-71
2021/12/19 12:14:23;;;;;;;40.40;36.53;;;7.30;99.90;;;;;;5020630;28;20472;-70
2021/12/19 12:16:55;;;;;;;42.60;38.43;;;7.30;99.90;;;;;;5015378;28;20474;-71
2021/12/19 12:19:40;;;;;;;42.67;38.10;;;7.40;99.90;;;;;;5022136;28;20515;-71
2021/12/19 12:22:41;;;;;;;40.67;36.57;;;7.50;99.90;;;;;;5016876;28;20973;-69
2021/12/19 12:25:15;;;;;;;40.97;37.47;;;7.40;99.90;;;;;;5018418;28;20466;-70
2021/12/19 12:27:45;;;;;;;42.90;38.77;;;7.40;99.90;;;;;;5019871;28;20500;-73
2021/12/19 12:30:14;;;;;;;41.13;37.03;;;7.30;99.90;;;;;;5024927;28;20466;-70
2021/12/19 12:32:42;;;;;;;40.40;36.47;;;7.20;99.90;;;;;;5023002;28;20467;-71
2021/12/19 12:35:12;;;;;;;40.60;36.90;;;7.30;99.90;;;;;;5018895;28;20820;-70
2021/12/19 12:37:40;;;;;;;38.17;34.50;;;7.30;99.90;;;;;;5017204;28;20464;-70
2021/12/19 12:40:24;;;;;;;40.63;36.70;;;7.30;99.90;;;;;;5019898;28;20539;-69
2021/12/19 12:43:05;;;;;;;39.53;35.80;;;7.30;99.90;;;;;;5015241;28;20473;-73
2021/12/19 12:45:58;;;;;;;36.70;33.50;;;7.30;99.90;;;;;;5012807;28;20512;-69
2021/12/19 12:48:36;;;;;;;39.67;35.77;;;7.30;99.90;;;;;;5019845;28;20568;-72
2021/12/19 12:51:08;;;;;;;42.37;37.80;;;7.30;99.90;;;;;;5021548;28;20463;-70
2021/12/19 12:53:37;;;;;;;39.50;35.57;;;7.40;99.90;;;;;;5015906;28;22343;-71
2021/12/19 12:56:10;;;;;;;38.60;35.20;;;7.30;99.90;;;;;;5025164;28;20579;-71
2021/12/19 12:58:40;;;;;;;34.90;32.10;;;7.30;99.90;;;;;;5015641;28;20463;-70
2021/12/19 13:01:23;;;;;;;35.40;32.63;;;7.20;99.90;;;;;;5018383;28;20461;-71
2021/12/19 13:04:08;;;;;;;33.53;30.67;;;7.10;99.90;;;;;;5018216;28;20462;-72
2021/12/19 13:06:39;;;;;;;32.77;30.23;;;7.00;99.90;;;;;;5018303;28;20499;-71
2021/12/19 13:09:14;;;;;;;32.13;29.43;;;6.90;99.90;;;;;;5015489;28;20480;-72
2021/12/19 13:11:42;;;;;;;30.47;28.20;;;7.00;99.90;;;;;;5012831;28;20464;-72
2021/12/19 13:14:14;;;;;;;29.07;27.00;;;6.90;99.90;;;;;;5022418;28;20472;-72
2021/12/19 13:16:46;;;;;;;30.30;28.10;;;6.90;99.90;;;;;;5019123;28;20459;-71
2021/12/19 13:20:01;;;;;;;29.90;27.53;;;6.90;99.90;;;;;;5022828;28;20551;-70
2021/12/19 13:22:35;;;;;;;27.73;25.73;;;6.90;99.90;;;;;;4941811;29;20471;-70
2021/12/19 13:25:08;;;;;;;26.90;24.83;;;6.90;99.90;;;;;;4939644;29;20567;-71
2021/12/19 13:27:36;;;;;;;26.20;24.30;;;6.90;99.90;;;;;;4981415;28;20496;-73
2021/12/19 13:30:09;;;;;;;27.90;25.90;;;6.80;99.90;;;;;;5014540;28;20458;-69
2021/12/19 13:32:37;;;;;;;26.27;24.43;;;6.90;99.90;;;;;;5018476;28;20563;-70
2021/12/19 13:35:08;;;;;;;24.87;23.27;;;6.90;99.90;;;;;;5017535;28;20460;-70
2021/12/19 13:37:50;;;;;;;23.60;22.13;;;6.90;99.90;;;;;;5017365;28;20561;-71
2021/12/19 13:40:17;;;;;;;23.70;22.23;;;6.80;99.90;;;;;;5019284;28;20529;-71
2021/12/19 13:42:48;;;;;;;24.30;22.70;;;6.70;99.90;;;;;;5012882;28;20469;-71
2021/12/19 13:45:47;;;;;;;22.20;20.87;;;6.70;99.90;;;;;;5018454;28;20499;-70